createdAt,value
2024-02-27T00:00:56.948Z,43.73
2024-02-27T00:03:44.295Z,50.60
2024-02-27T00:06:31.734Z,46.02
2024-02-27T00:09:19.914Z,42.60
2024-02-27T00:12:08.367Z,39.73
2024-02-27T00:14:55.928Z,46.90
2024-02-27T00:17:43.353Z,43.85
2024-02-27T00:20:30.761Z,47.25
2024-02-27T00:23:18.173Z,40.60
2024-02-27T00:26:06.029Z,43.13
2024-02-27T00:28:53.742Z,44.20
2024-02-27T00:31:41.098Z,39.98
2024-02-27T00:34:28.736Z,42.80
2024-02-27T00:37:16.124Z,45.58
2024-02-27T00:40:05.144Z,43.80
2024-02-27T00:42:52.470Z,45.52
2024-02-27T00:45:39.914Z,44.85
2024-02-27T00:48:27.548Z,43.30
2024-02-27T00:51:15.270Z,40.65
2024-02-27T00:54:02.573Z,45.10
2024-02-27T00:56:50.356Z,41.90
2024-02-27T00:59:38.041Z,45.30
2024-02-27T01:02:25.468Z,43.75
2024-02-27T01:05:13.268Z,40.85
2024-02-27T01:08:00.426Z,43.65
2024-02-27T01:10:48.032Z,44.27
2024-02-27T01:13:35.568Z,43.52
2024-02-27T01:16:24.573Z,42.98
2024-02-27T01:19:12.442Z,41.80
2024-02-27T01:22:03.602Z,43.65
2024-02-27T01:24:52.892Z,47.40
2024-02-27T01:27:40.321Z,42.20
2024-02-27T01:30:27.983Z,44.85
2024-02-27T01:33:15.692Z,40.50
2024-02-27T01:36:03.287Z,44.30
2024-02-27T01:38:50.421Z,46.63
2024-02-27T01:41:40.172Z,46.48
2024-02-27T01:44:28.712Z,45.60
2024-02-27T01:47:16.634Z,42.90
2024-02-27T01:50:05.437Z,51.28
2024-02-27T01:52:53.403Z,43.17
2024-02-27T01:55:42.116Z,43.90
2024-02-27T01:58:29.757Z,45.05
2024-02-27T02:01:18.346Z,38.78
2024-02-27T02:04:08.473Z,42.90
2024-02-27T02:06:56.707Z,44.27
2024-02-27T02:09:44.456Z,41.90
2024-02-27T02:12:31.857Z,42.88
2024-02-27T02:15:19.170Z,39.23
2024-02-27T02:18:06.738Z,42.15
2024-02-27T02:20:54.049Z,39.90
2024-02-27T02:23:42.302Z,42.53
2024-02-27T02:26:31.306Z,39.42
2024-02-27T02:29:18.544Z,39.33
2024-02-27T02:32:06.233Z,39.83
2024-02-27T02:34:53.911Z,38.98
2024-02-27T02:37:41.612Z,43.33
2024-02-27T02:40:29.138Z,39.75
2024-02-27T02:43:16.463Z,35.30
2024-02-27T02:46:04.166Z,34.95
2024-02-27T02:48:51.753Z,36.63
2024-02-27T02:51:39.658Z,36.30
2024-02-27T02:54:27.444Z,39.88
2024-02-27T02:57:15.036Z,41.70
2024-02-27T03:00:02.837Z,42.48
2024-02-27T03:02:50.161Z,41.08
2024-02-27T03:05:37.843Z,38.20
2024-02-27T03:08:25.759Z,38.13
2024-02-27T03:11:16.495Z,39.03
2024-02-27T03:14:05.970Z,37.67
2024-02-27T03:16:53.381Z,43.42
2024-02-27T03:19:41.056Z,40.85
2024-02-27T03:22:28.685Z,43.63
2024-02-27T03:25:16.688Z,41.42
2024-02-27T03:28:03.987Z,43.55
2024-02-27T03:30:51.692Z,37.85
2024-02-27T03:33:39.249Z,43.25
2024-02-27T03:36:26.751Z,40.05
2024-02-27T03:39:17.417Z,39.85
2024-02-27T03:42:05.021Z,42.62
2024-02-27T03:44:52.279Z,41.48
2024-02-27T03:47:39.836Z,36.65
2024-02-27T03:50:26.940Z,43.35
2024-02-27T03:53:14.285Z,36.48
2024-02-27T03:56:02.748Z,38.65
2024-02-27T03:58:50.300Z,36.83
2024-02-27T04:01:38.102Z,32.90
2024-02-27T04:04:25.660Z,45.28
2024-02-27T04:07:13.232Z,37.73
2024-02-27T04:10:00.671Z,40.55
2024-02-27T04:12:48.405Z,39.73
2024-02-27T04:15:35.880Z,35.23
2024-02-27T04:18:24.418Z,34.92
2024-02-27T04:21:11.652Z,41.10
2024-02-27T04:23:59.257Z,36.50
2024-02-27T04:26:46.770Z,41.13
2024-02-27T04:29:34.576Z,38.10
2024-02-27T04:32:21.828Z,33.35
2024-02-27T04:35:09.659Z,34.83
2024-02-27T04:37:57.434Z,36.73
2024-02-27T04:40:44.959Z,34.43
2024-02-27T04:43:32.302Z,43.05
2024-02-27T04:46:19.452Z,37.98
2024-02-27T04:49:07.374Z,37.28
2024-02-27T04:51:54.990Z,37.45
2024-02-27T04:54:42.613Z,35.78
2024-02-27T04:57:30.339Z,35.90
2024-02-27T05:00:18.076Z,34.67
2024-02-27T05:03:05.687Z,39.55
2024-02-27T05:05:53.034Z,37.85
2024-02-27T05:08:40.655Z,37.15
2024-02-27T05:11:28.351Z,31.87
2024-02-27T05:14:15.907Z,35.17
2024-02-27T05:17:03.504Z,36.08
2024-02-27T05:19:51.230Z,32.45
2024-02-27T05:22:38.548Z,33.05
2024-02-27T05:25:25.949Z,31.23
2024-02-27T05:28:13.575Z,37.65
2024-02-27T05:31:01.223Z,37.93
2024-02-27T05:33:48.820Z,37.58
2024-02-27T05:36:36.569Z,35.70
2024-02-27T05:39:24.920Z,37.40
2024-02-27T05:42:12.032Z,37.28
2024-02-27T05:44:59.480Z,33.42
2024-02-27T05:47:47.300Z,37.03
2024-02-27T05:50:35.118Z,38.30
2024-02-27T05:53:24.446Z,34.15
2024-02-27T05:56:11.533Z,33.75
2024-02-27T05:58:59.074Z,34.83
2024-02-27T06:01:46.608Z,35.20
2024-02-27T06:04:34.125Z,35.35
2024-02-27T06:07:21.629Z,32.38
2024-02-27T06:10:09.633Z,32.38
2024-02-27T06:12:57.027Z,41.45
2024-02-27T06:15:48.630Z,38.50
2024-02-27T06:18:37.649Z,36.13
2024-02-27T06:21:43.428Z,35.90
2024-02-27T06:24:31.068Z,36.45
2024-02-27T06:27:19.182Z,34.03
2024-02-27T06:30:07.379Z,35.03
2024-02-27T06:32:54.881Z,34.20
2024-02-27T06:35:42.803Z,34.00
2024-02-27T06:38:30.499Z,38.30
2024-02-27T06:41:18.077Z,36.93
2024-02-27T06:44:06.608Z,35.40
2024-02-27T06:46:54.144Z,35.03
2024-02-27T06:49:41.732Z,36.93
2024-02-27T06:52:29.450Z,34.60
2024-02-27T06:55:16.844Z,35.28
2024-02-27T06:58:04.533Z,34.40
2024-02-27T07:00:52.300Z,38.98
2024-02-27T07:03:39.615Z,42.13
2024-02-27T07:06:27.268Z,40.98
2024-02-27T07:09:14.761Z,35.88
2024-02-27T07:12:02.553Z,41.33
2024-02-27T07:14:50.184Z,35.35
2024-02-27T07:17:37.936Z,33.88
2024-02-27T07:20:26.806Z,35.25
2024-02-27T07:23:14.320Z,34.20
2024-02-27T07:26:01.747Z,32.93
2024-02-27T07:28:49.351Z,30.17
2024-02-27T07:31:37.453Z,37.03
2024-02-27T07:34:24.815Z,37.13
2024-02-27T07:37:18.184Z,35.15
2024-02-27T07:40:05.866Z,33.48
2024-02-27T07:42:53.421Z,34.55
2024-02-27T07:45:41.058Z,36.08
2024-02-27T07:48:28.368Z,36.40
2024-02-27T07:51:29.685Z,34.13
2024-02-27T07:54:18.276Z,35.08
2024-02-27T07:57:05.704Z,36.28
2024-02-27T07:59:53.185Z,35.28
2024-02-27T08:02:40.551Z,31.05
2024-02-27T08:05:29.724Z,34.88
2024-02-27T08:08:17.227Z,32.33
2024-02-27T08:11:05.151Z,33.75
2024-02-27T08:13:52.500Z,35.08
2024-02-27T08:16:39.926Z,32.63
2024-02-27T08:19:30.807Z,34.90
2024-02-27T08:22:18.504Z,32.58
2024-02-27T08:25:06.627Z,33.83
2024-02-27T08:27:54.143Z,28.20
2024-02-27T08:30:41.830Z,29.52
2024-02-27T08:33:29.526Z,25.82
2024-02-27T08:36:17.470Z,25.43
2024-02-27T08:39:05.475Z,26.80
2024-02-27T08:41:52.764Z,23.02
2024-02-27T08:44:41.697Z,23.40
2024-02-27T08:47:29.084Z,25.08
2024-02-27T08:50:16.806Z,25.70
2024-02-27T08:53:04.225Z,23.00
2024-02-27T08:55:51.698Z,23.25
2024-02-27T08:58:39.601Z,23.67
2024-02-27T09:01:27.435Z,23.92
2024-02-27T09:04:14.943Z,20.45
2024-02-27T09:07:02.151Z,22.93
2024-02-27T09:09:49.990Z,21.85
2024-02-27T09:12:37.891Z,22.40
2024-02-27T09:15:24.924Z,22.32
2024-02-27T09:18:12.633Z,24.90
2024-02-27T09:21:01.868Z,22.45
2024-02-27T09:23:51.000Z,21.68
2024-02-27T09:26:38.602Z,22.85
2024-02-27T09:29:26.153Z,20.90
2024-02-27T09:32:14.763Z,26.20
2024-02-27T09:35:02.651Z,22.77
2024-02-27T09:37:50.195Z,24.52
2024-02-27T09:40:37.767Z,17.67
2024-02-27T09:43:28.303Z,21.48
2024-02-27T09:46:16.288Z,22.75
2024-02-27T09:49:05.604Z,20.45
2024-02-27T09:51:55.221Z,19.15
2024-02-27T09:54:45.048Z,16.97
2024-02-27T09:57:32.169Z,20.90
2024-02-27T10:00:21.120Z,18.30
2024-02-27T10:03:10.212Z,16.90
2024-02-27T10:05:58.720Z,15.93
2024-02-27T10:08:51.577Z,19.00
2024-02-27T10:11:39.310Z,20.27
2024-02-27T10:14:35.313Z,21.87
2024-02-27T10:17:22.671Z,20.60
2024-02-27T10:20:12.528Z,17.50
2024-02-27T10:23:00.233Z,17.73
2024-02-27T10:25:48.470Z,21.60
2024-02-27T10:28:36.359Z,20.75
2024-02-27T10:31:23.601Z,18.10
2024-02-27T10:34:11.459Z,14.78
2024-02-27T10:37:06.377Z,21.95
2024-02-27T10:39:55.416Z,18.77
2024-02-27T10:42:43.515Z,19.65
2024-02-27T10:45:36.021Z,20.00
2024-02-27T10:48:29.620Z,18.02
2024-02-27T10:51:14.529Z,19.52
2024-02-27T10:54:04.718Z,16.52
2024-02-27T10:56:59.316Z,17.52
2024-02-27T10:59:50.238Z,18.70
2024-02-27T11:02:41.785Z,20.00
2024-02-27T11:05:31.681Z,15.45
2024-02-27T11:08:19.834Z,16.90
2024-02-27T11:11:07.257Z,16.77
2024-02-27T11:13:55.092Z,17.90
2024-02-27T11:16:45.262Z,14.90
2024-02-27T11:19:35.165Z,16.50
2024-02-27T11:22:24.213Z,16.65
2024-02-27T11:25:11.722Z,20.50
2024-02-27T11:28:00.491Z,17.15
2024-02-27T11:30:48.621Z,19.60
2024-02-27T11:33:55.189Z,17.75
2024-02-27T11:36:43.070Z,15.93
2024-02-27T11:39:33.915Z,16.97
2024-02-27T11:42:44.183Z,17.40
2024-02-27T11:45:33.775Z,14.68
2024-02-27T11:48:41.266Z,17.52
2024-02-27T11:51:33.749Z,15.55
2024-02-27T11:54:24.211Z,15.95
2024-02-27T11:57:11.531Z,17.25
2024-02-27T12:00:15.584Z,18.73
2024-02-27T12:03:03.212Z,18.95
2024-02-27T12:05:51.517Z,17.82
2024-02-27T12:08:49.732Z,15.58
2024-02-27T12:11:38.014Z,19.45
2024-02-27T12:14:25.990Z,21.17
2024-02-27T12:17:13.518Z,15.48
2024-02-27T12:20:01.894Z,18.37
2024-02-27T12:22:51.101Z,17.27
2024-02-27T12:25:46.334Z,18.40
2024-02-27T12:28:33.982Z,17.90
2024-02-27T12:31:21.947Z,15.90
2024-02-27T12:34:09.643Z,16.97
2024-02-27T12:36:57.500Z,17.42
2024-02-27T12:39:44.942Z,15.83
2024-02-27T12:42:34.301Z,17.67
2024-02-27T12:45:22.143Z,15.78
2024-02-27T12:48:09.848Z,14.40
2024-02-27T12:50:57.797Z,16.60
2024-02-27T12:53:45.463Z,16.85
2024-02-27T12:56:34.365Z,12.03
2024-02-27T12:59:23.394Z,12.70
2024-02-27T13:02:11.680Z,16.85
2024-02-27T13:04:59.445Z,18.95
2024-02-27T13:07:48.993Z,16.55
2024-02-27T13:10:36.881Z,15.98
2024-02-27T13:13:29.475Z,16.73
2024-02-27T13:16:18.608Z,15.28
2024-02-27T13:19:06.578Z,17.45
2024-02-27T13:21:59.261Z,14.05
2024-02-27T13:24:46.806Z,16.57
2024-02-27T13:27:34.654Z,23.52
2024-02-27T13:30:21.979Z,18.23
2024-02-27T13:33:09.420Z,14.73
2024-02-27T13:35:57.142Z,16.82
2024-02-27T13:38:44.675Z,15.08
2024-02-27T13:41:32.010Z,15.20
2024-02-27T13:44:20.753Z,15.58
2024-02-27T13:47:08.870Z,14.30
2024-02-27T13:49:58.708Z,16.40
2024-02-27T13:52:48.753Z,15.45
2024-02-27T13:55:34.666Z,15.45
2024-02-27T13:58:22.098Z,15.50
2024-02-27T14:01:09.594Z,13.75
2024-02-27T14:03:57.017Z,15.20
2024-02-27T14:06:45.400Z,17.23
2024-02-27T14:09:33.253Z,14.47
2024-02-27T14:12:20.867Z,12.78
2024-02-27T14:15:10.072Z,14.28
2024-02-27T14:17:57.916Z,14.58
2024-02-27T14:20:45.509Z,13.60
2024-02-27T14:23:32.821Z,14.70
2024-02-27T14:26:20.415Z,17.85
2024-02-27T14:29:07.797Z,14.18
2024-02-27T14:31:55.386Z,12.80
2024-02-27T14:34:42.989Z,19.48
2024-02-27T14:37:30.396Z,17.75
2024-02-27T14:40:18.070Z,14.40
2024-02-27T14:43:05.815Z,15.28
2024-02-27T14:45:54.175Z,15.90
2024-02-27T14:48:41.937Z,17.50
2024-02-27T14:51:30.126Z,19.57
2024-02-27T14:54:17.492Z,18.45
2024-02-27T14:57:04.950Z,19.90
2024-02-27T14:59:52.658Z,19.48
2024-02-27T15:02:40.210Z,18.05
2024-02-27T15:05:27.765Z,20.65
2024-02-27T15:08:15.387Z,18.00
2024-02-27T15:11:03.052Z,18.55
2024-02-27T15:13:50.765Z,16.65
2024-02-27T15:16:38.033Z,15.78
2024-02-27T15:19:25.814Z,19.67
2024-02-27T15:22:13.481Z,21.73
2024-02-27T15:25:01.423Z,17.85
2024-02-27T15:27:49.089Z,17.45
2024-02-27T15:30:36.500Z,20.60
2024-02-27T15:33:24.090Z,21.33
2024-02-27T15:36:12.049Z,16.70
2024-02-27T15:38:59.624Z,21.73
2024-02-27T15:41:48.004Z,17.45
2024-02-27T15:44:35.814Z,14.80
2024-02-27T15:47:25.665Z,19.40
2024-02-27T15:50:12.534Z,16.32
2024-02-27T15:53:01.439Z,18.45
2024-02-27T15:55:49.480Z,19.98
2024-02-27T15:58:38.555Z,18.95
2024-02-27T16:01:25.939Z,18.48
2024-02-27T16:04:34.780Z,19.15
2024-02-27T16:07:29.726Z,16.70
2024-02-27T16:10:16.910Z,17.80
2024-02-27T16:13:04.475Z,22.50
2024-02-27T16:15:52.121Z,19.80
2024-02-27T16:18:39.657Z,18.90
2024-02-27T16:21:28.832Z,16.23
2024-02-27T16:24:15.969Z,20.72
2024-02-27T16:27:04.924Z,17.12
2024-02-27T16:29:52.568Z,17.98
2024-02-27T16:32:42.117Z,23.38
2024-02-27T16:35:29.799Z,18.95
2024-02-27T16:38:17.060Z,17.50
2024-02-27T16:41:04.864Z,20.80
2024-02-27T16:43:52.320Z,20.90
2024-02-27T16:46:39.895Z,16.23
2024-02-27T16:49:27.660Z,20.25
2024-02-27T16:52:15.014Z,21.00
2024-02-27T16:55:02.700Z,20.12
2024-02-27T16:57:52.196Z,22.10
2024-02-27T17:00:39.548Z,17.27
2024-02-27T17:03:27.157Z,19.60
2024-02-27T17:06:18.596Z,20.72
2024-02-27T17:09:05.953Z,25.32
2024-02-27T17:11:53.167Z,19.30
2024-02-27T17:14:40.937Z,18.80
2024-02-27T17:17:28.234Z,21.80
2024-02-27T17:20:16.013Z,19.10
2024-02-27T17:23:07.529Z,26.07
2024-02-27T17:25:58.275Z,22.25
2024-02-27T17:28:43.987Z,23.80
2024-02-27T17:31:31.358Z,24.87
2024-02-27T17:34:19.128Z,19.35
2024-02-27T17:37:09.375Z,24.27
2024-02-27T17:39:55.856Z,20.57
2024-02-27T17:42:43.552Z,20.80
2024-02-27T17:45:31.053Z,22.17
2024-02-27T17:48:18.823Z,19.90
2024-02-27T17:51:06.537Z,22.27
2024-02-27T17:53:55.039Z,21.55
2024-02-27T17:56:42.651Z,22.55
2024-02-27T17:59:30.277Z,18.95
2024-02-27T18:02:17.687Z,21.82
2024-02-27T18:05:05.187Z,24.18
2024-02-27T18:07:52.386Z,21.85
2024-02-27T18:10:41.721Z,25.15
2024-02-27T18:13:29.859Z,26.12
2024-02-27T18:16:19.122Z,29.18
2024-02-27T18:19:06.600Z,30.70
2024-02-27T18:21:55.192Z,24.15
2024-02-27T18:24:42.508Z,25.95
2024-02-27T18:27:31.413Z,28.12
2024-02-27T18:30:19.128Z,25.90
2024-02-27T18:33:07.935Z,27.42
2024-02-27T18:35:56.185Z,27.02
2024-02-27T18:38:43.964Z,23.73
2024-02-27T18:41:31.525Z,21.60
2024-02-27T18:44:18.928Z,24.50
2024-02-27T18:47:06.253Z,20.90
2024-02-27T18:49:53.743Z,22.70
2024-02-27T18:52:40.993Z,27.70
2024-02-27T18:55:28.524Z,21.40
2024-02-27T18:58:15.802Z,24.98
2024-02-27T19:01:05.271Z,22.27
2024-02-27T19:03:52.956Z,24.92
2024-02-27T19:06:47.788Z,21.40
2024-02-27T19:09:35.245Z,23.18
2024-02-27T19:12:23.695Z,21.93
2024-02-27T19:15:11.535Z,19.45
2024-02-27T19:17:59.177Z,23.18
2024-02-27T19:20:46.843Z,21.70
2024-02-27T19:23:34.504Z,19.75
2024-02-27T19:26:22.030Z,18.55
2024-02-27T19:29:09.658Z,21.65
2024-02-27T19:31:57.008Z,24.82
2024-02-27T19:34:44.571Z,18.95
2024-02-27T19:37:31.930Z,19.98
2024-02-27T19:40:19.266Z,21.57
2024-02-27T19:43:06.555Z,22.48
2024-02-27T19:45:53.943Z,21.35
2024-02-27T19:48:41.679Z,24.30
2024-02-27T19:51:29.877Z,21.65
2024-02-27T19:54:17.627Z,24.18
2024-02-27T19:57:05.327Z,28.38
2024-02-27T19:59:53.034Z,31.93
2024-02-27T20:02:40.896Z,24.02
2024-02-27T20:05:28.241Z,21.30
2024-02-27T20:08:15.753Z,22.05
2024-02-27T20:11:03.340Z,18.75
2024-02-27T20:13:51.162Z,25.97
2024-02-27T20:16:38.602Z,23.60
2024-02-27T20:19:26.086Z,23.98
2024-02-27T20:22:13.516Z,21.93
2024-02-27T20:25:02.724Z,25.10
2024-02-27T20:27:51.147Z,28.70
2024-02-27T20:30:38.342Z,25.97
2024-02-27T20:33:27.762Z,24.45
2024-02-27T20:36:15.331Z,26.40
2024-02-27T20:39:02.562Z,23.98
2024-02-27T20:41:50.184Z,26.33
2024-02-27T20:44:37.804Z,24.80
2024-02-27T20:47:25.397Z,22.70
2024-02-27T20:50:13.127Z,26.80
2024-02-27T20:53:00.408Z,25.23
2024-02-27T20:55:48.074Z,25.40
2024-02-27T20:58:35.328Z,26.77
2024-02-27T21:01:22.972Z,26.57
2024-02-27T21:04:10.230Z,26.12
2024-02-27T21:06:57.648Z,26.62
2024-02-27T21:09:44.937Z,23.95
2024-02-27T21:12:32.570Z,29.82
2024-02-27T21:15:19.964Z,28.55
2024-02-27T21:18:07.664Z,24.15
2024-02-27T21:20:55.323Z,24.57
2024-02-27T21:23:42.634Z,26.33
2024-02-27T21:26:30.193Z,27.40
2024-02-27T21:29:17.487Z,24.50
2024-02-27T21:32:04.855Z,32.13
2024-02-27T21:34:52.306Z,34.05
2024-02-27T21:37:39.686Z,31.23
2024-02-27T21:40:28.967Z,29.42
2024-02-27T21:43:17.313Z,36.80
2024-02-27T21:46:04.928Z,34.53
2024-02-27T21:48:52.642Z,31.23
2024-02-27T21:51:44.132Z,30.52
2024-02-27T21:54:28.818Z,27.17
2024-02-27T21:57:16.412Z,26.45
2024-02-27T22:00:04.569Z,28.52
2024-02-27T22:02:51.852Z,29.27
2024-02-27T22:05:39.508Z,30.65
2024-02-27T22:08:27.226Z,30.55
2024-02-27T22:11:16.590Z,29.70
2024-02-27T22:14:03.735Z,30.85
2024-02-27T22:16:51.264Z,25.97
2024-02-27T22:19:38.813Z,28.60
2024-02-27T22:22:26.165Z,26.17
2024-02-27T22:25:13.762Z,24.55
2024-02-27T22:28:01.358Z,26.77
2024-02-27T22:30:48.918Z,23.30
2024-02-27T22:33:36.566Z,29.25
2024-02-27T22:36:25.626Z,26.37
2024-02-27T22:39:13.691Z,29.72
2024-02-27T22:42:01.179Z,28.45
2024-02-27T22:44:48.669Z,25.48
2024-02-27T22:47:36.146Z,25.85
2024-02-27T22:50:23.622Z,28.57
2024-02-27T22:53:10.966Z,28.20
2024-02-27T22:55:58.257Z,29.48
2024-02-27T22:58:45.805Z,29.90
2024-02-27T23:01:33.706Z,26.85
2024-02-27T23:04:20.821Z,27.00
2024-02-27T23:07:08.477Z,27.17
2024-02-27T23:09:56.173Z,28.32
2024-02-27T23:12:43.561Z,26.42
2024-02-27T23:15:31.105Z,27.35
2024-02-27T23:18:18.476Z,26.75
2024-02-27T23:21:06.363Z,29.23
2024-02-27T23:23:53.749Z,28.95
2024-02-27T23:26:41.309Z,24.55
2024-02-27T23:29:29.386Z,27.27
2024-02-27T23:32:16.856Z,30.05
2024-02-27T23:35:05.040Z,25.77
2024-02-27T23:37:52.398Z,28.52
2024-02-27T23:40:40.148Z,28.12
2024-02-27T23:43:28.383Z,27.98
2024-02-27T23:46:16.068Z,40.33
2024-02-27T23:49:03.527Z,30.40
2024-02-27T23:51:50.980Z,29.10
2024-02-27T23:54:43.083Z,31.87
2024-02-27T23:57:30.744Z,28.70
